Time;durP1;ratioP1;P1;durP2;ratioP2;P2;SDS_P1;SDS_P2;PMS_P1;PMS_P2;Temp;Humidity;BMP_temperature;BMP_pressure;BME280_temperature;BME280_humidity;BME280_pressure;Samples;Min_cycle;Max_cycle;Signal;HPM_P1;HPM_P2
2022/06/05 00:02:09;;;;;;;20.90;6.90;;;;;;;21.74;45.06;101888.66;5073644;28;20062;-74
2022/06/05 00:04:45;;;;;;;15.18;6.50;;;;;;;21.76;44.80;101897.44;5073484;28;20539;-74
2022/06/05 00:07:29;;;;;;;15.40;7.22;;;;;;;21.53;45.40;101890.94;5073282;28;20368;-74
2022/06/05 00:10:08;;;;;;;17.00;7.80;;;;;;;21.68;45.07;101887.31;5073295;28;20024;-75
2022/06/05 00:12:41;;;;;;;15.30;6.40;;;;;;;21.50;45.75;101900.00;5073535;28;20107;-73
2022/06/05 00:15:07;;;;;;;14.63;6.75;;;;;;;21.59;45.50;101895.88;5072136;28;20032;-74
2022/06/05 00:17:33;;;;;;;14.30;7.13;;;;;;;21.67;45.21;101893.25;5073294;28;20017;-75
2022/06/05 00:19:58;;;;;;;13.65;7.15;;;;;;;21.60;45.59;101893.88;5071928;28;20021;-74
2022/06/05 00:22:24;;;;;;;13.65;6.35;;;;;;;21.67;45.11;101893.25;5073008;28;20028;-73
2022/06/05 00:24:50;;;;;;;16.55;7.18;;;;;;;21.58;45.66;101890.66;5071891;28;20031;-91
2022/06/05 00:27:52;;;;;;;13.63;6.45;;;;;;;21.62;45.38;101877.66;5073218;28;20463;-74
2022/06/05 00:30:42;;;;;;;21.10;8.75;;;;;;;21.48;45.78;101889.25;5073355;28;20035;-74
2022/06/05 00:33:10;;;;;;;19.02;6.53;;;;;;;21.46;45.85;101877.69;5073338;28;20523;-74
2022/06/05 00:35:52;;;;;;;19.75;8.60;;;;;;;21.52;45.47;101876.22;5073066;28;20035;-74
2022/06/05 00:38:32;;;;;;;15.48;7.70;;;;;;;21.38;45.82;101881.44;5072918;28;20638;-73
2022/06/05 00:41:09;;;;;;;;;;;;;;;21.43;45.62;101872.81;5074849;28;20643;-91
2022/06/05 00:43:36;;;;;;;16.65;6.47;;;;;;;21.48;45.58;101867.00;5073381;28;19917;-73
2022/06/05 00:46:02;;;;;;;13.27;6.20;;;;;;;21.49;45.31;101860.28;5073122;28;20028;-73
2022/06/05 00:48:29;;;;;;;24.45;8.05;;;;;;;21.43;45.49;101858.94;5073434;28;20020;-73
2022/06/05 00:50:54;;;;;;;11.02;6.63;;;;;;;21.48;45.38;101863.41;5072940;28;20031;-74
2022/06/05 00:53:20;;;;;;;17.95;7.30;;;;;;;21.48;45.12;101853.09;5072942;28;20025;-80
2022/06/05 00:55:53;;;;;;;13.30;7.00;;;;;;;21.49;45.10;101851.94;5072702;28;20029;-73
2022/06/05 00:58:20;;;;;;;12.82;7.00;;;;;;;21.31;45.42;101843.16;5073251;28;20021;-73
2022/06/05 01:00:53;;;;;;;15.88;7.38;;;;;;;21.51;44.95;101837.66;5073458;28;20036;-74
2022/06/05 01:03:22;;;;;;;15.27;6.25;;;;;;;21.54;44.81;101834.97;5072440;28;20021;-73
2022/06/05 01:05:47;;;;;;;14.48;6.22;;;;;;;21.50;44.85;101834.06;5073319;28;20021;-74
2022/06/05 01:08:14;;;;;;;13.15;7.10;;;;;;;21.29;45.36;101833.56;5072572;28;20111;-73
2022/06/05 01:10:55;;;;;;;21.02;7.38;;;;;;;21.35;44.86;101831.31;5072936;28;20074;-76
2022/06/05 01:13:39;;;;;;;18.23;6.68;;;;;;;21.31;44.95;101836.78;5072826;28;20103;-74
2022/06/05 01:16:22;;;;;;;18.05;7.15;;;;;;;21.38;44.99;101841.69;5072610;28;20020;-92
2022/06/05 01:18:51;;;;;;;15.32;6.00;;;;;;;21.42;44.79;101842.63;5072656;28;20029;-93
2022/06/05 01:21:48;;;;;;;17.15;6.80;;;;;;;21.47;44.45;101848.72;5072434;28;20025;-73
2022/06/05 01:24:33;;;;;;;14.50;7.60;;;;;;;21.43;44.81;101845.03;5072548;28;20487;-73
2022/06/05 01:27:03;;;;;;;20.50;6.72;;;;;;;21.25;45.10;101844.56;5072378;28;20016;-74
2022/06/05 01:29:38;;;;;;;15.57;7.03;;;;;;;21.23;44.96;101843.28;5072477;28;20028;-74
2022/06/05 01:32:14;;;;;;;14.65;6.50;;;;;;;21.25;44.78;101840.97;5072895;28;20525;-74
2022/06/05 01:34:48;;;;;;;12.68;6.38;;;;;;;21.32;44.40;101839.22;5072411;28;20418;-73
2022/06/05 01:37:27;;;;;;;12.15;7.15;;;;;;;21.18;44.95;101832.47;5072432;28;20037;-74
2022/06/05 01:40:02;;;;;;;13.13;6.50;;;;;;;21.17;44.88;101834.44;5072285;28;20080;-75
2022/06/05 01:42:40;;;;;;;16.50;6.43;;;;;;;20.93;45.37;101838.19;5072392;28;20028;-74
2022/06/05 01:45:39;;;;;;;13.48;6.90;;;;;;;20.53;45.89;101835.50;5072297;28;20103;-87
2022/06/05 01:48:09;;;;;;;15.75;7.38;;;;;;;20.89;45.34;101836.47;5072313;28;20474;-73
2022/06/05 01:50:49;;;;;;;14.15;7.80;;;;;;;20.81;45.24;101831.91;5072488;28;20039;-73
2022/06/05 01:53:19;;;;;;;16.63;7.07;;;;;;;20.97;44.93;101827.97;5072286;28;20116;-74
2022/06/05 01:55:56;;;;;;;13.75;6.70;;;;;;;20.84;45.29;101825.63;5072543;28;20032;-74
2022/06/05 01:58:28;;;;;;;29.45;7.57;;;;;;;20.97;45.07;101822.41;5072329;28;20056;-74
2022/06/05 02:00:59;;;;;;;19.70;7.95;;;;;;;21.12;44.63;101818.03;5072269;28;20070;-73
2022/06/05 02:03:37;;;;;;;20.48;8.00;;;;;;;21.17;44.63;101815.00;5072259;28;20032;-74
2022/06/05 02:06:14;;;;;;;16.90;7.32;;;;;;;20.94;45.04;101817.59;5072232;28;20027;-74
2022/06/05 02:08:50;;;;;;;16.15;6.88;;;;;;;21.05;44.82;101807.53;5072464;28;20382;-74
2022/06/05 02:11:22;;;;;;;14.13;6.93;;;;;;;20.94;44.89;101816.78;5072485;28;20021;-74
2022/06/05 02:14:01;;;;;;;11.13;8.02;;;;;;;20.90;45.01;101811.13;5071834;28;20035;-74
2022/06/05 02:16:29;;;;;;;18.60;7.97;;;;;;;20.84;45.11;101808.97;5073367;28;20030;-74
2022/06/05 02:18:56;;;;;;;15.63;7.03;;;;;;;21.02;44.71;101797.16;5075492;28;20027;-74
2022/06/05 02:21:22;;;;;;;14.00;6.53;;;;;;;20.91;45.05;101807.16;5076222;28;20029;-74
2022/06/05 02:23:47;;;;;;;13.98;6.85;;;;;;;21.01;44.85;101803.88;5075692;28;20090;-78
2022/06/05 02:26:13;;;;;;;15.18;7.38;;;;;;;21.03;44.71;101804.31;5075650;28;20048;-73
2022/06/05 02:28:39;;;;;;;18.88;6.78;;;;;;;21.13;44.59;101802.16;5075229;28;20519;-73
2022/06/05 02:31:04;;;;;;;17.50;7.35;;;;;;;21.30;43.95;101808.16;5075847;28;20029;-77
2022/06/05 02:34:06;;;;;;;10.77;6.53;;;;;;;21.06;44.42;101806.38;5073957;28;20032;-73
2022/06/05 02:36:43;;;;;;;12.52;6.80;;;;;;;20.91;44.98;101809.94;5075807;28;20058;-73
2022/06/05 02:39:41;;;;;;;15.07;7.57;;;;;;;20.86;44.64;101806.66;5075077;28;20125;-73
2022/06/05 02:42:29;;;;;;;16.90;7.38;;;;;;;20.87;44.86;101806.28;5069721;28;20509;-74
2022/06/05 02:45:01;;;;;;;11.57;6.82;;;;;;;21.08;44.44;101807.97;5074851;28;20497;-74
2022/06/05 02:48:04;;;;;;;13.00;6.55;;;;;;;20.86;44.37;101807.44;5073646;28;20036;-73
2022/06/05 02:50:38;;;;;;;15.25;7.05;;;;;;;20.77;44.80;101806.78;5074698;28;20513;-75
2022/06/05 02:53:07;;;;;;;19.00;8.13;;;;;;;21.04;44.37;101805.13;5072079;28;20020;-88
2022/06/05 02:55:33;;;;;;;13.38;7.13;;;;;;;21.00;44.45;101799.47;5054363;28;20107;-79
2022/06/05 02:57:59;;;;;;;15.10;7.43;;;;;;;20.92;44.41;101794.88;5054680;28;20519;-74
2022/06/05 03:00:27;;;;;;;15.02;7.32;;;;;;;20.95;44.21;101801.72;5054822;28;20112;-74
2022/06/05 03:05:39;;;;;;;17.38;8.07;;;;;;;20.88;44.34;101790.41;5055158;28;20392;-74
2022/06/05 03:08:07;;;;;;;16.33;7.43;;;;;;;20.68;44.84;101797.81;5054459;28;20040;-73
2022/06/05 03:10:33;;;;;;;16.83;8.48;;;;;;;21.00;44.22;101788.34;5054796;28;20029;-94
2022/06/05 03:13:01;;;;;;;15.20;8.07;;;;;;;20.82;44.68;101795.44;5054683;28;20028;-73
2022/06/05 03:15:28;;;;;;;17.70;7.00;;;;;;;20.85;44.56;101794.69;5054527;28;20056;-74
2022/06/05 03:17:54;;;;;;;20.00;8.27;;;;;;;20.97;44.37;101779.94;5054589;28;20029;-74
2022/06/05 03:20:19;;;;;;;17.35;8.88;;;;;;;20.85;44.55;101783.59;5054480;28;20091;-94
2022/06/05 03:22:46;;;;;;;16.85;8.10;;;;;;;20.74;44.73;101782.53;5054477;28;20460;-73
2022/06/05 03:25:16;;;;;;;15.43;7.45;;;;;;;20.57;45.52;101780.91;5053133;28;20037;-73
2022/06/05 03:27:42;;;;;;;16.63;8.60;;;;;;;20.59;44.92;101784.13;5052381;28;20033;-73
2022/06/05 03:30:09;;;;;;;16.27;7.88;;;;;;;20.88;44.38;101787.66;5054186;28;20074;-74
2022/06/05 03:32:34;;;;;;;19.45;9.35;;;;;;;20.71;44.86;101783.25;5054241;28;20064;-74
2022/06/05 03:35:00;;;;;;;21.50;8.80;;;;;;;20.73;44.89;101780.91;5052853;28;20067;-79
2022/06/05 03:37:26;;;;;;;19.55;9.23;;;;;;;20.43;45.67;101780.47;5054092;28;20029;-74
2022/06/05 03:39:51;;;;;;;18.35;9.40;;;;;;;20.76;44.78;101778.22;5053779;28;20053;-73
2022/06/05 03:42:17;;;;;;;22.42;10.82;;;;;;;20.73;45.08;101767.03;5052539;28;20176;-79
2022/06/05 03:44:43;;;;;;;13.70;9.18;;;;;;;20.57;45.42;101769.00;5053862;28;20391;-73
2022/06/05 03:47:10;;;;;;;20.60;10.30;;;;;;;20.77;44.61;101771.50;5053833;28;20021;-74
2022/06/05 03:49:36;;;;;;;16.30;9.63;;;;;;;20.84;44.28;101776.44;5053764;28;20471;-73
2022/06/05 03:52:04;;;;;;;17.02;9.65;;;;;;;20.61;44.76;101781.78;5052607;28;20482;-74
2022/06/05 03:54:31;;;;;;;21.10;9.82;;;;;;;20.57;44.78;101777.31;5053737;28;20029;-73
2022/06/05 03:56:57;;;;;;;22.33;9.73;;;;;;;20.62;44.62;101777.03;5053711;28;20032;-74
2022/06/05 03:59:23;;;;;;;19.58;9.05;;;;;;;20.59;44.69;101774.97;5053483;28;20028;-74
2022/06/05 04:01:48;;;;;;;19.42;9.57;;;;;;;20.59;44.58;101778.56;5053217;28;20059;-74
2022/06/05 04:04:14;;;;;;;17.27;7.88;;;;;;;20.40;44.92;101781.16;5053730;28;20033;-73
2022/06/05 04:06:40;;;;;;;15.23;8.60;;;;;;;20.45;44.84;101783.72;5068842;28;20079;-74
2022/06/05 04:09:08;;;;;;;15.30;8.40;;;;;;;20.37;45.03;101771.59;5053711;28;20075;-74
2022/06/05 04:11:35;;;;;;;14.80;8.02;;;;;;;20.39;45.14;101776.78;5053207;28;20060;-73
2022/06/05 04:14:02;;;;;;;19.98;9.55;;;;;;;20.46;44.96;101768.69;5053264;28;20033;-73
2022/06/05 04:16:29;;;;;;;18.77;8.30;;;;;;;20.51;44.82;101771.22;5053072;28;20112;-74
2022/06/05 04:18:57;;;;;;;19.10;8.57;;;;;;;20.45;44.88;101773.44;5053374;28;20029;-83
2022/06/05 04:21:25;;;;;;;12.88;7.10;;;;;;;20.10;45.59;101773.22;5053038;28;20029;-74
2022/06/05 04:23:52;;;;;;;17.20;8.23;;;;;;;20.48;44.76;101778.28;5053280;28;20021;-74
2022/06/05 04:26:22;;;;;;;20.23;8.35;;;;;;;20.12;45.73;101770.09;5052926;28;20103;-73
2022/06/05 04:28:48;;;;;;;20.05;8.68;;;;;;;20.15;45.77;101774.94;5052952;28;20057;-74
2022/06/05 04:31:20;;;;;;;15.85;7.70;;;;;;;20.10;45.79;101775.16;5052978;28;20104;-73
2022/06/05 04:33:47;;;;;;;16.65;8.23;;;;;;;20.17;45.60;101783.69;5053072;28;20036;-73
2022/06/05 04:36:13;;;;;;;14.63;8.40;;;;;;;20.36;45.04;101785.84;5053084;28;20017;-74
2022/06/05 04:38:39;;;;;;;13.20;7.63;;;;;;;20.03;46.15;101789.66;5052328;28;20025;-73
2022/06/05 04:41:05;;;;;;;23.42;9.23;;;;;;;20.27;45.54;101786.00;5052661;28;20056;-73
2022/06/05 04:43:31;;;;;;;21.27;9.57;;;;;;;20.43;45.11;101781.28;5051544;28;20397;-73
2022/06/05 04:45:56;;;;;;;15.75;7.97;;;;;;;20.37;45.35;101779.13;5052768;28;20407;-74
2022/06/05 04:48:22;;;;;;;15.93;7.95;;;;;;;20.37;45.25;101771.59;5052729;28;20025;-73
2022/06/05 04:50:47;;;;;;;12.55;8.63;;;;;;;20.58;44.78;101776.16;5052732;28;20032;-73
2022/06/05 04:53:13;;;;;;;19.33;8.20;;;;;;;20.27;45.70;101786.00;5052801;28;20025;-80
2022/06/05 04:55:39;;;;;;;19.67;8.43;;;;;;;20.31;45.53;101784.09;5052756;28;20468;-74
2022/06/05 04:58:05;;;;;;;16.85;8.18;;;;;;;20.34;45.25;101777.06;5052494;28;20033;-73
2022/06/05 05:00:31;;;;;;;19.95;9.20;;;;;;;20.42;44.93;101779.66;5052540;28;20061;-74
2022/06/05 05:02:57;;;;;;;16.92;8.63;;;;;;;20.35;45.31;101782.25;5052992;28;20083;-74
2022/06/05 05:05:22;;;;;;;18.25;7.47;;;;;;;20.56;44.85;101784.03;5052426;28;20021;-76
2022/06/05 05:07:48;;;;;;;13.23;8.05;;;;;;;20.56;44.64;101779.28;5052505;28;20091;-74
2022/06/05 05:10:14;;;;;;;20.02;7.95;;;;;;;20.62;44.88;101775.06;5052500;28;20021;-74
2022/06/05 05:12:40;;;;;;;18.38;8.60;;;;;;;20.81;44.27;101779.94;5052337;28;20033;-92
2022/06/05 05:15:08;;;;;;;22.10;8.55;;;;;;;20.55;44.74;101777.66;5052491;28;20032;-73
2022/06/05 05:17:33;;;;;;;24.55;9.25;;;;;;;20.55;44.91;101785.16;5052492;28;20036;-73
2022/06/05 05:19:59;;;;;;;13.07;7.95;;;;;;;20.51;44.84;101782.31;5051275;28;20597;-72
2022/06/05 05:22:25;;;;;;;22.92;8.75;;;;;;;20.57;44.77;101785.66;5052151;28;20467;-79
2022/06/05 05:24:51;;;;;;;22.58;9.00;;;;;;;20.55;44.74;101780.41;5052404;28;20107;-72
2022/06/05 05:27:16;;;;;;;21.95;8.50;;;;;;;20.87;44.11;101766.59;5052321;28;20025;-73
2022/06/05 05:29:42;;;;;;;17.98;9.32;;;;;;;20.73;44.56;101761.47;5051057;28;20059;-74
2022/06/05 05:32:09;;;;;;;17.20;8.43;;;;;;;20.78;44.44;101766.75;5052347;28;20104;-87
2022/06/05 05:34:35;;;;;;;17.15;9.40;;;;;;;20.78;44.53;101769.53;5052377;28;20029;-72
2022/06/05 05:37:01;;;;;;;17.85;9.60;;;;;;;20.81;44.21;101765.25;5052298;28;20029;-72
2022/06/05 05:42:11;;;;;;;21.83;9.15;;;;;;;20.80;44.39;101761.66;5052279;28;20119;-74
2022/06/05 05:44:48;;;;;;;19.05;9.15;;;;;;;20.64;44.56;101763.63;5052208;28;20071;-73
2022/06/05 05:47:20;;;;;;;17.77;8.50;;;;;;;20.78;44.34;101756.47;5052248;28;20027;-74
2022/06/05 05:49:50;;;;;;;23.60;8.98;;;;;;;20.75;44.54;101751.59;5052650;28;20510;-77
2022/06/05 05:52:16;;;;;;;;;;;;;;;20.54;44.98;101764.13;5056375;28;20089;-73
2022/06/05 05:54:41;;;;;;;19.55;8.82;;;;;;;20.94;44.15;101764.81;5055940;28;20375;-74
2022/06/05 05:57:08;;;;;;;18.95;10.20;;;;;;;21.01;44.15;101764.97;5054736;28;20033;-73
2022/06/05 05:59:34;;;;;;;20.27;8.27;;;;;;;20.86;44.82;101763.00;5056294;28;20021;-77
2022/06/05 06:02:00;;;;;;;21.90;9.65;;;;;;;21.07;44.30;101762.72;5055851;28;20043;-73
2022/06/05 06:04:25;;;;;;;19.75;9.25;;;;;;;20.95;44.50;101766.41;5055772;28;20541;-73
2022/06/05 06:06:53;;;;;;;15.57;10.30;;;;;;;21.23;44.20;101768.25;5055765;28;20035;-90
2022/06/05 06:09:19;;;;;;;18.63;10.10;;;;;;;21.03;44.59;101765.41;5055659;28;20032;-73
2022/06/05 06:11:46;;;;;;;22.83;10.25;;;;;;;21.27;43.79;101758.88;5055714;28;20467;-73
2022/06/05 06:14:12;;;;;;;23.38;9.80;;;;;;;21.10;44.49;101763.97;5054289;28;20029;-74
2022/06/05 06:16:39;;;;;;;17.90;9.70;;;;;;;21.22;44.22;101755.53;5055617;28;20475;-75
2022/06/05 06:19:04;;;;;;;17.98;9.98;;;;;;;21.23;44.03;101755.16;5054373;28;20052;-80
2022/06/05 06:21:31;;;;;;;22.10;10.32;;;;;;;;;;5055434;28;20471;-73
2022/06/05 06:23:57;;;;;;;15.00;9.05;;;;;;;21.19;43.85;101764.59;5057184;28;20041;-74
2022/06/05 06:26:22;;;;;;;16.45;9.50;;;;;;;21.39;43.19;101755.19;5055873;28;20403;-74
2022/06/05 06:28:48;;;;;;;20.73;10.90;;;;;;;21.44;42.81;101752.09;5055946;28;20029;-74
2022/06/05 06:31:16;;;;;;;19.00;10.80;;;;;;;21.33;43.02;101748.28;5065288;28;20032;-74
2022/06/05 06:33:43;;;;;;;21.25;11.27;;;;;;;21.35;43.07;101757.06;5075341;28;20033;-74
2022/06/05 06:36:13;;;;;;;18.17;10.45;;;;;;;21.38;43.09;101750.75;5074626;28;20052;-73
2022/06/05 06:38:40;;;;;;;21.17;10.27;;;;;;;21.34;43.23;101749.91;5073283;28;20027;-73
2022/06/05 06:41:11;;;;;;;17.45;10.65;;;;;;;21.36;42.89;101750.34;5071645;28;20072;-73
2022/06/05 06:43:38;;;;;;;23.25;11.30;;;;;;;21.33;43.04;101740.75;5074423;28;20551;-73
2022/06/05 06:46:04;;;;;;;13.35;9.10;;;;;;;21.55;42.80;101747.59;5074899;28;20379;-92
2022/06/05 06:48:30;;;;;;;22.23;9.55;;;;;;;21.45;43.15;101745.38;5076038;28;20028;-74
2022/06/05 06:50:57;;;;;;;24.20;11.13;;;;;;;21.47;42.96;101745.84;5074945;28;20475;-74
2022/06/05 06:53:23;;;;;;;21.25;11.60;;;;;;;21.55;43.01;101746.81;5075261;28;20055;-90
2022/06/05 06:55:50;;;;;;;23.30;11.27;;;;;;;21.60;42.72;101744.50;5074875;28;20033;-74
2022/06/05 06:58:17;;;;;;;18.17;10.13;;;;;;;21.79;42.46;101746.53;5074693;28;20035;-82
2022/06/05 07:00:43;;;;;;;22.25;11.10;;;;;;;21.65;42.61;101751.78;5074680;28;20382;-74
2022/06/05 07:03:09;;;;;;;27.33;10.25;;;;;;;21.55;42.85;101744.00;5072220;28;20088;-74
2022/06/05 07:05:37;;;;;;;22.65;10.43;;;;;;;21.66;42.73;101741.47;5073173;28;20029;-74
2022/06/05 07:08:04;;;;;;;22.05;12.50;;;;;;;21.68;42.88;101745.47;5074530;28;20028;-74
2022/06/05 07:10:29;;;;;;;20.98;10.77;;;;;;;21.58;43.12;101746.06;5073078;28;20079;-73
2022/06/05 07:12:55;;;;;;;19.63;11.15;;;;;;;21.88;42.29;101741.53;5074440;28;20035;-73
2022/06/05 07:15:21;;;;;;;31.65;12.27;;;;;;;21.73;42.57;101747.19;5074799;28;20073;-93
2022/06/05 07:17:47;;;;;;;18.60;11.07;;;;;;;21.65;43.00;101746.22;5074564;28;20025;-74
2022/06/05 07:20:13;;;;;;;17.60;11.07;;;;;;;21.56;43.06;101749.22;5074563;28;20032;-81
2022/06/05 07:22:39;;;;;;;16.85;10.02;;;;;;;21.46;43.12;101748.94;5074939;28;20036;-86
2022/06/05 07:25:06;;;;;;;22.38;11.70;;;;;;;21.65;43.07;101750.97;5074829;28;20398;-74
2022/06/05 07:27:32;;;;;;;21.90;11.75;;;;;;;21.75;42.78;101745.63;5074049;28;20471;-73
2022/06/05 07:29:57;;;;;;;24.55;11.40;;;;;;;21.78;42.80;101744.91;5074033;28;20086;-74
2022/06/05 07:32:23;;;;;;;26.30;12.38;;;;;;;21.91;42.53;101744.75;5074002;28;20039;-74
2022/06/05 07:34:49;;;;;;;20.67;10.98;;;;;;;21.71;42.96;101747.53;5074139;28;20060;-77
2022/06/05 07:37:15;;;;;;;23.98;16.27;;;;;;;21.72;42.79;101748.34;5073919;28;20474;-73
2022/06/05 07:39:42;;;;;;;19.45;10.90;;;;;;;21.55;43.25;101736.47;5071999;28;20041;-73
2022/06/05 07:42:09;;;;;;;20.52;12.68;;;;;;;21.76;42.70;101743.66;5073804;28;20402;-74
2022/06/05 07:44:38;;;;;;;17.98;12.50;;;;;;;21.69;42.81;101735.16;5074455;28;20359;-74
2022/06/05 07:47:08;;;;;;;16.63;11.55;;;;;;;21.49;43.53;101737.13;5073803;28;20035;-74
2022/06/05 07:49:38;;;;;;;20.75;12.38;;;;;;;21.60;43.15;101738.94;5073970;28;20107;-77
2022/06/05 07:54:47;;;;;;;19.17;11.02;;;;;;;21.69;42.91;101743.50;5072424;28;19965;-74
2022/06/05 07:57:15;;;;;;;17.35;9.43;;;;;;;21.63;42.94;101740.22;5071098;28;20032;-74
2022/06/05 07:59:46;;;;;;;21.88;9.85;;;;;;;21.71;42.57;101741.19;5073037;28;20063;-74
2022/06/05 08:02:14;;;;;;;18.85;10.80;;;;;;;21.72;42.75;101740.00;5073830;28;20039;-74
2022/06/05 08:04:41;;;;;;;19.48;11.68;;;;;;;21.41;43.25;101738.94;5073396;28;20025;-74
2022/06/05 08:07:10;;;;;;;21.55;10.63;;;;;;;21.77;42.31;101734.97;5073492;28;20020;-73
2022/06/05 08:09:37;;;;;;;16.63;9.02;;;;;;;21.47;42.92;101743.06;5073317;28;20107;-74
2022/06/05 08:12:05;;;;;;;14.95;9.50;;;;;;;21.42;42.95;101743.31;5073445;28;20032;-74
2022/06/05 08:14:34;;;;;;;17.13;9.30;;;;;;;21.48;42.78;101746.63;5073166;28;20082;-80
2022/06/05 08:17:00;;;;;;;22.35;9.88;;;;;;;21.36;42.83;101743.97;5073326;28;20025;-72
2022/06/05 08:19:26;;;;;;;17.58;9.98;;;;;;;21.61;42.42;101742.53;5073686;28;20037;-90
2022/06/05 08:21:53;;;;;;;22.33;9.68;;;;;;;21.50;42.54;101745.09;5073039;28;20024;-75
2022/06/05 08:24:19;;;;;;;15.95;11.35;;;;;;;21.31;42.81;101754.22;5076174;28;20111;-93
2022/06/05 08:26:45;;;;;;;24.35;10.98;;;;;;;21.46;42.59;101748.94;5074727;28;20054;-93
2022/06/05 08:29:11;;;;;;;21.92;10.32;;;;;;;21.54;42.50;101750.75;5073578;28;20028;-91
2022/06/05 08:31:37;;;;;;;17.92;10.55;;;;;;;21.14;43.60;101753.75;5072514;28;20028;-86
2022/06/05 08:34:04;;;;;;;23.48;11.75;;;;;;;21.08;43.77;101755.97;5072229;28;20119;-72
2022/06/05 08:36:31;;;;;;;17.42;11.70;;;;;;;21.22;43.63;101761.09;5063752;28;20020;-76
2022/06/05 08:42:24;;;;;;;18.67;12.30;;;;;;;21.11;44.35;101755.28;5058935;28;20376;-88
2022/06/05 08:44:52;;;;;;;15.40;10.50;;;;;;;20.85;44.84;101753.03;5046155;28;20053;-79
2022/06/05 08:47:34;;;;;;;18.25;11.68;;;;;;;20.71;45.32;101755.47;5066082;28;20032;-85
2022/06/05 08:50:28;;;;;;;19.50;11.90;;;;;;;21.04;44.78;101769.81;5071811;28;20028;-86
2022/06/05 08:53:11;;;;;;;17.67;12.05;;;;;;;21.01;45.08;101764.19;5062793;28;20060;-74
2022/06/05 08:55:40;;;;;;;23.48;12.60;;;;;;;20.75;45.46;101753.59;5054751;28;20040;-75
2022/06/05 08:58:15;;;;;;;23.83;13.00;;;;;;;20.93;45.00;101762.34;5057285;28;20095;-75
2022/06/05 09:00:49;;;;;;;18.67;12.15;;;;;;;20.75;45.34;101754.38;5069422;28;20394;-76
2022/06/05 09:03:36;;;;;;;18.90;11.50;;;;;;;20.81;45.26;101759.69;5073346;28;20064;-91
2022/06/05 09:06:05;;;;;;;23.25;12.30;;;;;;;20.72;45.50;101760.66;5072035;28;20479;-87
2022/06/05 09:08:34;;;;;;;18.05;12.18;;;;;;;20.78;45.11;101758.41;5071456;28;20120;-74
2022/06/05 09:11:04;;;;;;;20.70;11.13;;;;;;;20.75;45.15;101759.94;5072771;28;20627;-90
2022/06/05 09:14:10;;;;;;;25.25;12.18;;;;;;;20.75;45.15;101759.13;5071420;28;20383;-74
2022/06/05 09:16:50;;;;;;;23.02;11.77;;;;;;;21.00;44.59;101756.97;5060260;28;20540;-75
2022/06/05 09:19:22;;;;;;;17.52;10.27;;;;;;;21.02;44.42;101763.81;5071237;28;20474;-79
2022/06/05 09:21:57;;;;;;;19.67;8.77;;;;;;;20.86;44.59;101754.69;5070030;28;20041;-88
2022/06/05 09:24:59;;;;;;;17.27;10.02;;;;;;;20.61;44.93;101759.56;5071020;28;20032;-75
2022/06/05 09:27:40;;;;;;;16.52;9.18;;;;;;;20.91;44.33;101764.69;5075863;28;20039;-77
2022/06/05 09:30:14;;;;;;;20.08;7.75;;;;;;;20.92;44.17;101763.53;5076500;28;20063;-75
2022/06/05 09:33:17;;;;;;;17.40;7.68;;;;;;;20.73;44.64;101767.03;5073969;28;20090;-75
2022/06/05 09:35:54;;;;;;;16.80;7.85;;;;;;;21.27;43.64;101766.38;5065311;28;20101;-83
2022/06/05 09:38:37;;;;;;;17.77;6.88;;;;;;;20.99;44.14;101767.28;5074010;28;20364;-76
2022/06/05 09:41:31;;;;;;;19.67;8.85;;;;;;;20.86;44.41;101767.75;5074693;28;20044;-74
2022/06/05 09:44:40;;;;;;;17.27;7.15;;;;;;;20.93;44.14;101767.91;5073142;28;20048;-81
2022/06/05 09:47:29;;;;;;;22.88;7.70;;;;;;;21.23;44.07;101762.69;5072891;28;20036;-83
2022/06/05 09:49:59;;;;;;;13.57;7.43;;;;;;;21.28;43.59;101768.81;5064758;28;20068;-74
2022/06/05 09:52:31;;;;;;;20.67;7.53;;;;;;;21.14;43.76;101762.09;5068958;28;20043;-74
2022/06/05 09:55:11;;;;;;;14.73;6.25;;;;;;;21.00;43.82;101759.75;5073786;28;20120;-74
2022/06/05 09:58:27;;;;;;;13.77;6.65;;;;;;;20.85;43.94;101772.47;5071621;28;20032;-74
2022/06/05 10:01:18;;;;;;;22.05;7.45;;;;;;;21.05;43.43;101774.19;5072740;28;20534;-74
2022/06/05 10:03:43;;;;;;;16.38;7.03;;;;;;;20.83;43.98;101772.03;5075068;28;20024;-74
2022/06/05 10:06:17;;;;;;;16.70;8.00;;;;;;;21.20;43.44;101778.13;5075236;28;20026;-84
2022/06/05 10:08:50;;;;;;;13.05;5.88;;;;;;;21.14;43.16;101776.78;5069726;28;20036;-74
2022/06/05 10:11:28;;;;;;;19.17;7.15;;;;;;;21.39;42.55;101782.19;5074079;28;20025;-86
2022/06/05 10:14:15;;;;;;;13.05;6.00;;;;;;;21.23;42.84;101784.94;5071469;28;20039;-74
2022/06/05 10:17:10;;;;;;;14.98;6.60;;;;;;;21.37;42.97;101770.59;5074604;28;20021;-76
2022/06/05 10:19:42;;;;;;;11.68;5.70;;;;;;;21.79;42.67;101773.53;5067648;28;20048;-79
2022/06/05 10:22:30;;;;;;;17.27;6.82;;;;;;;22.07;42.29;101770.56;5075527;28;20070;-74
2022/06/05 10:25:02;;;;;;;15.68;6.45;;;;;;;21.87;42.52;101762.19;5068094;28;20037;-74
2022/06/05 10:27:29;;;;;;;16.23;5.53;;;;;;;22.12;42.39;101767.50;5069104;28;20364;-77
2022/06/05 10:29:59;;;;;;;8.85;5.82;;;;;;;22.26;42.09;101759.44;5074430;28;20083;-76
2022/06/05 10:32:42;;;;;;;13.32;5.53;;;;;;;22.23;42.21;101762.16;5073728;28;20032;-83
2022/06/05 10:35:36;;;;;;;16.95;5.68;;;;;;;21.99;42.54;101758.47;5073966;28;20029;-83
2022/06/05 10:38:31;;;;;;;17.33;6.15;;;;;;;22.00;42.10;101768.44;5070738;28;20028;-81
2022/06/05 10:41:05;;;;;;;14.52;6.80;;;;;;;22.15;41.85;101755.66;5070452;28;20403;-76
2022/06/05 10:43:33;;;;;;;12.57;6.03;;;;;;;22.09;41.88;101757.09;5073894;28;20093;-75
2022/06/05 10:46:07;;;;;;;12.50;6.28;;;;;;;22.16;41.84;101754.47;5071504;28;20020;-75
2022/06/05 10:48:55;;;;;;;15.70;6.05;;;;;;;22.17;41.63;101769.19;5073587;28;20074;-75
2022/06/05 10:51:21;;;;;;;10.05;6.85;;;;;;;22.19;41.55;101770.41;5071173;28;20021;-75
2022/06/05 10:54:11;;;;;;;12.90;6.38;;;;;;;22.19;41.46;101759.28;5073834;28;20074;-84
2022/06/05 10:56:50;;;;;;;12.45;6.30;;;;;;;22.27;41.15;101760.22;5068035;28;20016;-85
2022/06/05 10:59:31;;;;;;;9.98;6.18;;;;;;;22.52;40.63;101757.91;5071157;28;20081;-75
2022/06/05 11:02:19;;;;;;;12.63;6.47;;;;;;;22.27;41.31;101749.09;5067589;28;20520;-76
2022/06/05 11:05:13;;;;;;;15.20;7.13;;;;;;;22.40;41.05;101750.53;5072916;28;20083;-83
2022/06/05 11:08:16;;;;;;;17.60;7.30;;;;;;;22.53;40.40;101756.75;5070370;28;20043;-84
2022/06/05 11:13:50;;;;;;;13.38;7.03;;;;;;;22.36;41.10;101750.47;5064573;28;20104;-83
2022/06/05 11:16:28;;;;;;;15.40;6.55;;;;;;;22.21;41.09;101753.34;5070835;28;20403;-87
2022/06/05 11:19:22;;;;;;;18.42;5.63;;;;;;;22.52;40.30;101746.75;5071040;28;20109;-84
2022/06/05 11:21:50;;;;;;;13.82;6.03;;;;;;;22.30;40.49;101748.38;5072292;28;20106;-83
2022/06/05 11:24:21;;;;;;;14.15;5.60;;;;;;;22.51;40.22;101748.75;5071823;28;20021;-79
2022/06/05 11:27:03;;;;;;;13.38;5.63;;;;;;;22.63;39.91;101745.00;5068765;28;20124;-76
2022/06/05 11:29:54;;;;;;;20.92;6.82;;;;;;;22.49;40.12;101745.53;5070041;28;20036;-78
2022/06/05 11:32:25;;;;;;;13.48;5.13;;;;;;;22.62;39.97;101744.19;5069625;28;20027;-74
2022/06/05 11:34:58;;;;;;;14.35;5.10;;;;;;;22.64;39.63;101736.25;5068954;28;20031;-74
2022/06/05 11:37:45;;;;;;;12.05;5.45;;;;;;;22.42;39.51;101734.25;5069540;28;20116;-78
2022/06/05 11:40:55;;;;;;;8.13;5.40;;;;;;;22.68;39.36;101739.13;5068034;27;20101;-79
2022/06/05 11:43:30;;;;;;;8.25;4.30;;;;;;;22.47;39.54;101733.16;5069981;28;20052;-81
2022/06/05 11:46:11;;;;;;;12.23;5.30;;;;;;;22.29;39.37;101733.66;5073608;27;20111;-85
2022/06/05 11:48:46;;;;;;;14.85;5.95;;;;;;;22.59;39.55;101738.53;5071666;28;20043;-81
2022/06/05 11:51:31;;;;;;;12.45;5.80;;;;;;;22.44;39.63;101734.69;5072759;28;20487;-85
2022/06/05 11:54:30;;;;;;;13.38;4.88;;;;;;;22.44;39.70;101731.91;5079272;28;20036;-82
2022/06/05 11:57:14;;;;;;;10.25;5.63;;;;;;;22.64;39.35;101727.91;5086552;28;20047;-83